createdAt,value
2022-10-15T00:01:52.501Z,14.20
2022-10-15T00:04:19.774Z,14.24
2022-10-15T00:06:48.498Z,14.33
2022-10-15T00:09:15.571Z,14.40
2022-10-15T00:11:43.249Z,14.43
2022-10-15T00:14:13.156Z,14.39
2022-10-15T00:16:40.483Z,14.44
2022-10-15T00:19:08.107Z,14.49
2022-10-15T00:21:37.093Z,14.48
2022-10-15T00:24:05.034Z,14.53
2022-10-15T00:26:36.208Z,14.47
2022-10-15T00:29:05.303Z,14.48
2022-10-15T00:31:33.715Z,14.51
2022-10-15T00:34:03.117Z,14.46
2022-10-15T00:36:31.918Z,14.39
2022-10-15T00:38:59.480Z,14.38
2022-10-15T00:41:30.403Z,14.34
2022-10-15T00:43:59.041Z,14.24
2022-10-15T00:46:29.424Z,14.23
2022-10-15T00:49:12.844Z,14.20
2022-10-15T00:51:43.095Z,14.11
2022-10-15T00:54:11.821Z,14.05
2022-10-15T00:56:40.184Z,14.05
2022-10-15T00:59:08.819Z,14.15
2022-10-15T01:01:36.312Z,14.14
2022-10-15T01:04:05.015Z,14.20
2022-10-15T01:06:32.864Z,14.23
2022-10-15T01:09:01.203Z,14.22
2022-10-15T01:11:28.594Z,14.12
2022-10-15T01:14:12.326Z,14.06
2022-10-15T01:16:58.999Z,14.07
2022-10-15T01:19:46.816Z,13.97
2022-10-15T01:22:23.245Z,13.98
2022-10-15T01:25:09.013Z,14.05
2022-10-15T01:27:39.883Z,14.07
2022-10-15T01:30:18.974Z,14.08
2022-10-15T01:32:56.707Z,14.10
2022-10-15T01:35:33.121Z,14.18
2022-10-15T01:38:19.422Z,14.20
2022-10-15T01:40:46.521Z,14.21
2022-10-15T01:43:16.414Z,14.29
2022-10-15T01:45:57.279Z,14.27
2022-10-15T01:48:43.114Z,14.29
2022-10-15T01:51:11.709Z,14.28
2022-10-15T01:53:41.032Z,14.28
2022-10-15T01:56:15.955Z,14.28
2022-10-15T01:58:49.136Z,14.30
2022-10-15T02:01:17.855Z,14.29
2022-10-15T02:03:49.895Z,14.29
2022-10-15T02:06:21.010Z,14.35
2022-10-15T02:08:55.899Z,14.29
2022-10-15T02:11:23.733Z,14.28
2022-10-15T02:13:57.385Z,14.40
2022-10-15T02:16:24.963Z,14.49
2022-10-15T02:19:00.606Z,14.41
2022-10-15T02:21:32.670Z,14.35
2022-10-15T02:24:06.237Z,14.34
2022-10-15T02:26:34.736Z,14.44
2022-10-15T02:29:03.012Z,14.42
2022-10-15T02:31:31.888Z,14.46
2022-10-15T02:34:03.261Z,14.50
2022-10-15T02:36:31.176Z,14.48
2022-10-15T02:39:00.431Z,14.46
2022-10-15T02:41:28.412Z,14.45
2022-10-15T02:43:56.781Z,14.44
2022-10-15T02:46:24.420Z,14.41
2022-10-15T02:48:51.622Z,14.41
2022-10-15T02:51:19.134Z,14.41
2022-10-15T02:53:46.213Z,14.39
2022-10-15T02:56:13.404Z,14.37
2022-10-15T02:58:41.079Z,14.34
2022-10-15T03:01:08.799Z,14.32
2022-10-15T03:03:36.793Z,14.31
2022-10-15T03:06:06.084Z,14.29
2022-10-15T03:08:33.721Z,14.28
2022-10-15T03:11:03.185Z,14.33
2022-10-15T03:13:31.500Z,14.32
2022-10-15T03:15:58.721Z,14.32
2022-10-15T03:18:25.905Z,14.34
2022-10-15T03:20:54.771Z,14.30
2022-10-15T03:23:22.385Z,14.29
2022-10-15T03:25:56.260Z,14.27
2022-10-15T03:28:23.704Z,14.24
2022-10-15T03:30:51.170Z,14.31
2022-10-15T03:33:20.865Z,14.25
2022-10-15T03:35:50.633Z,14.28
2022-10-15T03:38:18.740Z,14.27
2022-10-15T03:40:46.694Z,14.26
2022-10-15T03:43:23.937Z,14.23
2022-10-15T03:45:52.315Z,14.26
2022-10-15T03:48:22.703Z,14.24
2022-10-15T03:50:50.279Z,14.29
2022-10-15T03:53:18.904Z,14.31
2022-10-15T03:55:46.496Z,14.30
2022-10-15T03:58:13.920Z,14.19
2022-10-15T04:00:50.314Z,14.09
2022-10-15T04:03:19.552Z,14.04
2022-10-15T04:05:54.639Z,13.93
2022-10-15T04:08:28.757Z,13.87
2022-10-15T04:10:56.437Z,13.74
2022-10-15T04:13:24.128Z,13.76
2022-10-15T04:15:51.515Z,13.73
2022-10-15T04:18:22.435Z,13.69
2022-10-15T04:20:54.263Z,13.58
2022-10-15T04:23:24.285Z,13.62
2022-10-15T04:26:10.923Z,13.55
2022-10-15T04:28:39.619Z,13.52
2022-10-15T04:31:08.494Z,13.52
2022-10-15T04:33:37.811Z,13.47
2022-10-15T04:36:07.025Z,13.42
2022-10-15T04:38:46.662Z,13.32
2022-10-15T04:41:14.461Z,13.23
2022-10-15T04:44:05.090Z,13.27
2022-10-15T04:46:33.878Z,13.28
2022-10-15T04:49:22.038Z,13.29
2022-10-15T04:51:50.563Z,13.25
2022-10-15T04:56:59.590Z,13.24
2022-10-15T04:59:28.057Z,13.23
2022-10-15T05:02:23.032Z,13.24
2022-10-15T05:04:56.066Z,13.20
2022-10-15T05:07:23.504Z,13.26
2022-10-15T05:09:52.692Z,13.19
2022-10-15T05:12:20.631Z,13.13
2022-10-15T05:14:48.361Z,13.15
2022-10-15T05:17:22.319Z,13.10
2022-10-15T05:19:50.211Z,13.11
2022-10-15T05:22:22.378Z,13.01
2022-10-15T05:24:53.736Z,12.94
2022-10-15T05:27:41.037Z,12.98
2022-10-15T05:30:09.519Z,12.93
2022-10-15T05:32:43.256Z,12.90
2022-10-15T05:35:12.530Z,12.98
2022-10-15T05:38:08.545Z,12.92
2022-10-15T05:40:35.773Z,12.85
2022-10-15T05:43:18.024Z,12.84
2022-10-15T05:45:45.064Z,12.81
2022-10-15T05:48:12.186Z,12.74
2022-10-15T05:50:39.234Z,12.84
2022-10-15T05:53:11.462Z,12.93
2022-10-15T05:55:46.839Z,12.97
2022-10-15T05:58:13.905Z,13.00
2022-10-15T06:00:41.074Z,13.17
2022-10-15T06:03:11.067Z,13.26
2022-10-15T06:05:38.164Z,13.30
2022-10-15T06:08:05.146Z,13.32
2022-10-15T06:10:35.028Z,13.37
2022-10-15T06:13:02.071Z,13.44
2022-10-15T06:15:29.109Z,13.49
2022-10-15T06:17:56.137Z,13.54
2022-10-15T06:20:23.225Z,13.58
2022-10-15T06:22:50.289Z,13.64
2022-10-15T06:25:17.516Z,13.66
2022-10-15T06:27:44.616Z,13.78
2022-10-15T06:30:11.637Z,13.90
2022-10-15T06:32:38.660Z,13.98
2022-10-15T06:35:05.970Z,14.01
2022-10-15T06:37:33.764Z,14.01
2022-10-15T06:40:01.068Z,14.07
2022-10-15T06:42:28.085Z,14.11
2022-10-15T06:44:55.751Z,14.16
2022-10-15T06:47:23.053Z,14.23
2022-10-15T06:49:50.358Z,14.40
2022-10-15T06:52:17.392Z,14.66
2022-10-15T06:54:44.497Z,14.86
2022-10-15T06:57:11.499Z,15.04
2022-10-15T06:59:41.287Z,15.13
2022-10-15T07:02:14.034Z,15.34
2022-10-15T07:04:41.103Z,15.45
2022-10-15T07:07:08.122Z,15.51
2022-10-15T07:09:35.476Z,15.55
2022-10-15T07:12:02.880Z,15.66
2022-10-15T07:14:30.236Z,15.77
2022-10-15T07:16:57.952Z,15.94
2022-10-15T07:19:25.617Z,16.06
2022-10-15T07:21:52.606Z,16.16
2022-10-15T07:24:19.762Z,16.20
2022-10-15T07:26:49.774Z,16.28
2022-10-15T07:29:16.846Z,16.35
2022-10-15T07:31:46.830Z,16.31
2022-10-15T07:34:16.672Z,16.38
2022-10-15T07:36:43.731Z,16.38
2022-10-15T07:39:10.937Z,16.36
2022-10-15T07:41:37.965Z,16.43
2022-10-15T07:44:05.126Z,16.44
2022-10-15T07:46:32.261Z,16.44
2022-10-15T07:48:59.274Z,16.50
2022-10-15T07:51:26.294Z,16.65
2022-10-15T07:53:53.425Z,16.75
2022-10-15T07:56:20.548Z,16.81
2022-10-15T07:58:51.973Z,16.88
2022-10-15T08:01:20.452Z,16.89
2022-10-15T08:03:47.912Z,17.11
2022-10-15T08:06:14.979Z,17.04
2022-10-15T08:08:42.106Z,17.28
2022-10-15T08:11:10.619Z,17.38
2022-10-15T08:13:41.145Z,17.40
2022-10-15T08:16:09.076Z,17.34
2022-10-15T08:18:36.266Z,17.43
2022-10-15T08:21:03.758Z,17.44
2022-10-15T08:23:30.759Z,17.52
2022-10-15T08:25:59.198Z,17.55
2022-10-15T08:28:29.276Z,17.54
2022-10-15T08:31:04.247Z,17.58
2022-10-15T08:33:34.105Z,17.80
2022-10-15T08:36:01.123Z,17.88
2022-10-15T08:38:29.811Z,17.89
2022-10-15T08:40:57.787Z,17.75
2022-10-15T08:43:28.980Z,17.77
2022-10-15T08:45:59.185Z,17.74
2022-10-15T08:48:42.608Z,17.69
2022-10-15T08:51:11.109Z,17.75
2022-10-15T08:53:48.215Z,17.80
2022-10-15T08:56:18.530Z,17.72
2022-10-15T08:58:48.944Z,17.71
2022-10-15T09:01:39.121Z,17.88
2022-10-15T09:04:09.357Z,17.83
2022-10-15T09:06:37.532Z,17.81
2022-10-15T09:09:27.626Z,17.90
2022-10-15T09:12:13.357Z,17.85
2022-10-15T09:14:43.657Z,17.81
2022-10-15T09:17:16.796Z,17.80
2022-10-15T09:19:45.768Z,17.66
2022-10-15T09:22:14.950Z,17.81
2022-10-15T09:24:45.670Z,17.92
2022-10-15T09:27:19.954Z,17.91
2022-10-15T09:29:49.188Z,17.91
2022-10-15T09:32:24.318Z,17.82
2022-10-15T09:34:54.921Z,17.88
2022-10-15T09:37:25.158Z,17.82
2022-10-15T09:40:03.324Z,18.01
2022-10-15T09:42:36.180Z,18.00
2022-10-15T09:45:04.654Z,17.95
2022-10-15T09:47:33.240Z,18.07
2022-10-15T09:50:00.464Z,18.16
2022-10-15T09:52:27.460Z,18.01
2022-10-15T09:55:23.563Z,18.07
2022-10-15T09:57:53.464Z,18.22
2022-10-15T10:00:20.971Z,18.34
2022-10-15T10:03:08.220Z,18.31
2022-10-15T10:05:36.420Z,18.32
2022-10-15T10:08:11.195Z,18.41
2022-10-15T10:10:40.776Z,18.38
2022-10-15T10:13:22.297Z,18.79
2022-10-15T10:15:56.047Z,18.83
2022-10-15T10:18:26.058Z,19.00
2022-10-15T10:21:01.459Z,18.80
2022-10-15T10:23:34.767Z,18.73
2022-10-15T10:26:03.936Z,18.71
2022-10-15T10:28:40.471Z,18.55
2022-10-15T10:31:11.004Z,18.44
2022-10-15T10:33:50.456Z,18.54
2022-10-15T10:36:34.317Z,18.56
2022-10-15T10:39:15.258Z,18.67
2022-10-15T10:41:50.846Z,18.69
2022-10-15T10:44:38.244Z,18.71
2022-10-15T10:47:08.070Z,18.72
2022-10-15T10:49:45.666Z,18.58
2022-10-15T10:52:25.045Z,18.60
2022-10-15T10:55:12.348Z,18.64
2022-10-15T10:57:42.384Z,18.73
2022-10-15T11:00:13.777Z,18.84
2022-10-15T11:02:43.966Z,19.07
2022-10-15T11:05:12.209Z,18.92
2022-10-15T11:07:48.803Z,19.04
2022-10-15T11:10:23.997Z,19.31
2022-10-15T11:15:53.560Z,19.53
2022-10-15T11:18:39.489Z,19.29
2022-10-15T11:21:07.146Z,19.39
2022-10-15T11:23:46.564Z,19.44
2022-10-15T11:26:13.601Z,19.52
2022-10-15T11:28:53.828Z,19.61
2022-10-15T11:31:26.961Z,19.74
2022-10-15T11:34:09.097Z,19.33
2022-10-15T11:36:41.253Z,19.39
2022-10-15T11:39:11.650Z,19.38
2022-10-15T11:41:56.228Z,19.45
2022-10-15T11:44:28.135Z,19.30
2022-10-15T11:47:14.117Z,19.32
2022-10-15T11:49:50.435Z,19.35
2022-10-15T11:52:22.024Z,19.49
2022-10-15T11:54:56.941Z,19.54
2022-10-15T11:57:27.725Z,19.84
2022-10-15T11:59:57.554Z,19.52
2022-10-15T12:02:29.556Z,19.67
2022-10-15T12:05:01.402Z,19.38
2022-10-15T12:07:33.477Z,19.32
2022-10-15T12:10:10.275Z,19.39
2022-10-15T12:12:51.237Z,19.34
2022-10-15T12:15:22.169Z,19.37
2022-10-15T12:17:54.070Z,19.38
2022-10-15T12:20:22.963Z,19.48
2022-10-15T12:22:54.788Z,19.46
2022-10-15T12:25:35.421Z,19.36
2022-10-15T12:28:06.743Z,19.39
2022-10-15T12:30:39.386Z,19.52
2022-10-15T12:33:22.940Z,19.49
2022-10-15T12:35:55.019Z,19.44
2022-10-15T12:38:30.440Z,19.47
2022-10-15T12:41:03.492Z,19.56
2022-10-15T12:43:36.008Z,19.73
2022-10-15T12:46:05.653Z,19.75
2022-10-15T12:48:35.206Z,19.71
2022-10-15T12:51:14.628Z,19.90
2022-10-15T12:53:42.213Z,19.83
2022-10-15T12:56:09.885Z,19.71
2022-10-15T12:58:42.594Z,19.80
2022-10-15T13:01:13.811Z,19.80
2022-10-15T13:03:52.017Z,19.89
2022-10-15T13:06:25.216Z,20.10
2022-10-15T13:08:59.469Z,20.21
2022-10-15T13:11:37.506Z,20.09
2022-10-15T13:14:10.273Z,19.98
2022-10-15T13:16:38.186Z,19.79
2022-10-15T13:19:06.220Z,19.75
2022-10-15T13:21:55.045Z,19.94
2022-10-15T13:24:27.101Z,20.09
2022-10-15T13:26:59.960Z,20.23
2022-10-15T13:29:28.877Z,20.21
2022-10-15T13:31:59.741Z,19.96
2022-10-15T13:34:36.777Z,20.23
2022-10-15T13:37:06.409Z,20.00
2022-10-15T13:39:41.366Z,19.92
2022-10-15T13:42:19.802Z,19.68
2022-10-15T13:44:57.092Z,19.62
2022-10-15T13:47:28.193Z,19.64
2022-10-15T13:50:32.189Z,19.61
2022-10-15T13:53:01.132Z,19.69
2022-10-15T13:55:34.150Z,19.63
2022-10-15T13:58:22.267Z,19.76
2022-10-15T14:00:52.737Z,19.72
2022-10-15T14:03:23.902Z,19.67
2022-10-15T14:05:53.693Z,19.60
2022-10-15T14:08:39.001Z,19.50
2022-10-15T14:11:08.000Z,19.57
2022-10-15T14:13:43.756Z,19.64
2022-10-15T14:16:14.315Z,19.53
2022-10-15T14:18:49.332Z,19.48
2022-10-15T14:21:28.634Z,19.56
2022-10-15T14:24:16.580Z,19.38
2022-10-15T14:26:44.568Z,19.43
2022-10-15T14:29:37.864Z,19.39
2022-10-15T14:32:21.274Z,19.48
2022-10-15T14:34:50.172Z,19.53
2022-10-15T14:37:42.983Z,19.50
2022-10-15T14:40:13.304Z,19.68
2022-10-15T14:42:45.540Z,20.03
2022-10-15T14:45:15.966Z,20.04
2022-10-15T14:48:11.867Z,20.00
2022-10-15T14:50:43.822Z,20.01
2022-10-15T14:53:19.050Z,20.07
2022-10-15T14:55:57.010Z,19.90
2022-10-15T14:58:28.867Z,19.80
2022-10-15T15:01:00.076Z,19.75
2022-10-15T15:03:39.312Z,19.89
2022-10-15T15:06:09.601Z,19.87
2022-10-15T15:08:38.299Z,19.92
2022-10-15T15:11:10.076Z,19.78
2022-10-15T15:13:42.343Z,19.61
2022-10-15T15:25:52.138Z,19.65
2022-10-15T15:28:46.147Z,19.61
2022-10-15T15:31:19.902Z,19.49
2022-10-15T15:33:48.831Z,19.46
2022-10-15T15:36:22.540Z,19.39
2022-10-15T15:38:51.837Z,19.17
2022-10-15T15:41:22.606Z,19.04
2022-10-15T15:43:51.511Z,18.87
2022-10-15T15:46:20.391Z,18.78
2022-10-15T15:48:49.310Z,18.61
2022-10-15T15:51:22.231Z,18.54
2022-10-15T15:53:51.153Z,18.39
2022-10-15T15:56:20.335Z,18.40
2022-10-15T15:58:50.934Z,18.23
2022-10-15T16:01:20.105Z,18.06
2022-10-15T16:03:48.157Z,17.94
2022-10-15T16:06:16.355Z,17.89
2022-10-15T16:08:45.672Z,17.95
2022-10-15T16:11:13.141Z,17.94
2022-10-15T16:13:43.497Z,17.57
2022-10-15T16:16:12.580Z,17.49
2022-10-15T16:18:40.214Z,17.43
2022-10-15T16:21:07.582Z,17.36
2022-10-15T16:23:36.141Z,17.23
2022-10-15T16:26:03.504Z,17.16
2022-10-15T16:28:32.744Z,17.04
2022-10-15T16:31:27.781Z,16.99
2022-10-15T16:33:59.028Z,16.98
2022-10-15T16:36:27.153Z,16.91
2022-10-15T16:38:54.470Z,16.80
2022-10-15T16:41:21.621Z,16.78
2022-10-15T16:43:50.305Z,16.68
2022-10-15T16:46:19.178Z,16.63
2022-10-15T16:48:52.596Z,16.60
2022-10-15T16:51:20.633Z,16.51
2022-10-15T16:53:48.208Z,16.52
2022-10-15T16:56:17.220Z,16.52
2022-10-15T16:58:48.317Z,16.49
2022-10-15T17:01:17.910Z,16.41
2022-10-15T17:03:46.867Z,16.34
2022-10-15T17:06:19.569Z,16.31
2022-10-15T17:08:51.239Z,16.25
2022-10-15T17:11:23.506Z,16.20
2022-10-15T17:13:53.667Z,16.22
2022-10-15T17:16:24.336Z,16.24
2022-10-15T17:21:25.579Z,16.50
2022-10-15T17:23:56.926Z,16.53
2022-10-15T17:26:25.078Z,16.55
2022-10-15T17:28:52.759Z,16.55
2022-10-15T17:31:21.781Z,16.44
2022-10-15T17:33:49.040Z,16.40
2022-10-15T17:36:20.327Z,16.45
2022-10-15T17:38:47.731Z,16.47
2022-10-15T17:41:16.243Z,16.45
2022-10-15T17:43:43.437Z,16.39
2022-10-15T17:46:11.984Z,16.40
2022-10-15T17:48:39.896Z,16.35
2022-10-15T17:51:08.043Z,16.40
2022-10-15T17:53:35.145Z,16.40
2022-10-15T17:56:09.852Z,16.36
2022-10-15T17:58:37.765Z,16.32
2022-10-15T18:01:05.341Z,16.33
2022-10-15T18:03:35.101Z,16.31
2022-10-15T18:06:16.009Z,16.33
2022-10-15T18:08:43.289Z,16.36
2022-10-15T18:11:11.553Z,16.36
2022-10-15T18:13:38.701Z,16.30
2022-10-15T18:16:06.204Z,16.23
2022-10-15T18:18:33.388Z,16.22
2022-10-15T18:21:00.967Z,16.22
2022-10-15T18:23:29.920Z,16.31
2022-10-15T18:26:01.285Z,16.38
2022-10-15T18:28:30.124Z,16.42
2022-10-15T18:30:57.844Z,16.50
2022-10-15T18:33:24.934Z,16.49
2022-10-15T18:35:52.169Z,16.47
2022-10-15T18:38:19.441Z,16.42
2022-10-15T18:40:46.440Z,16.41
2022-10-15T18:43:16.098Z,16.34
2022-10-15T18:45:47.165Z,16.41
2022-10-15T18:48:14.430Z,16.40
2022-10-15T18:50:42.520Z,16.44
2022-10-15T18:53:10.080Z,16.51
2022-10-15T18:55:37.526Z,16.51
2022-10-15T18:58:04.572Z,16.61
2022-10-15T19:00:37.978Z,16.62
2022-10-15T19:03:06.717Z,16.59
2022-10-15T19:05:35.629Z,16.47
2022-10-15T19:08:04.120Z,16.44
2022-10-15T19:10:31.232Z,16.36
2022-10-15T19:12:58.289Z,16.31
2022-10-15T19:15:25.412Z,16.23
2022-10-15T19:17:52.678Z,16.18
2022-10-15T19:20:21.217Z,16.10
2022-10-15T19:22:48.260Z,16.05
2022-10-15T19:25:15.480Z,15.96
2022-10-15T19:27:44.725Z,16.00
2022-10-15T19:30:11.790Z,15.99
2022-10-15T19:32:38.930Z,15.93
2022-10-15T19:35:06.054Z,15.77
2022-10-15T19:37:34.172Z,15.72
2022-10-15T19:40:01.160Z,15.68
2022-10-15T19:42:30.271Z,15.66
2022-10-15T19:44:57.329Z,15.68
2022-10-15T19:47:24.647Z,15.67
2022-10-15T19:49:54.343Z,15.60
2022-10-15T19:52:21.463Z,15.46
2022-10-15T19:54:51.395Z,15.41
2022-10-15T19:57:18.616Z,15.33
2022-10-15T19:59:45.644Z,15.28
2022-10-15T20:02:12.747Z,15.24
2022-10-15T20:04:39.888Z,15.21
2022-10-15T20:07:06.861Z,15.21
2022-10-15T20:09:33.900Z,15.19
2022-10-15T20:12:01.081Z,15.18
2022-10-15T20:14:28.181Z,15.11
2022-10-15T20:16:55.376Z,15.07
2022-10-15T20:19:22.765Z,15.10
2022-10-15T20:21:50.688Z,15.14
2022-10-15T20:24:17.716Z,15.15
2022-10-15T20:26:44.787Z,15.25
2022-10-15T20:29:12.248Z,15.15
2022-10-15T20:31:39.410Z,15.14
2022-10-15T20:34:06.467Z,15.09
2022-10-15T20:36:33.503Z,15.08
2022-10-15T20:39:01.262Z,15.03
2022-10-15T20:41:28.864Z,15.01
2022-10-15T20:43:56.798Z,14.92
2022-10-15T20:46:26.985Z,15.05
2022-10-15T20:48:55.709Z,15.33
2022-10-15T20:51:27.576Z,15.23
2022-10-15T20:53:57.617Z,15.13
2022-10-15T20:56:24.802Z,15.08
2022-10-15T20:58:51.905Z,15.22
2022-10-15T21:01:19.817Z,15.23
2022-10-15T21:03:46.918Z,15.01
2022-10-15T21:06:13.915Z,14.80
2022-10-15T21:08:41.235Z,14.62
2022-10-15T21:11:09.345Z,14.79
2022-10-15T21:13:36.434Z,14.95
2022-10-15T21:16:05.558Z,14.66
2022-10-15T21:18:33.124Z,14.52
2022-10-15T21:21:05.109Z,14.38
2022-10-15T21:23:32.553Z,14.43
2022-10-15T21:26:06.889Z,14.47
2022-10-15T21:28:34.558Z,14.45
2022-10-15T21:31:08.421Z,14.46
2022-10-15T21:33:36.109Z,14.47
2022-10-15T21:36:29.562Z,14.48
2022-10-15T21:38:59.361Z,14.47
2022-10-15T21:41:27.020Z,14.53
2022-10-15T21:43:54.175Z,14.57
2022-10-15T21:46:21.361Z,14.58
2022-10-15T21:48:48.729Z,14.51
2022-10-15T21:51:17.239Z,14.46
2022-10-15T21:53:44.246Z,14.45
2022-10-15T21:56:11.668Z,14.52
2022-10-15T21:58:39.683Z,14.53
2022-10-15T22:01:27.094Z,14.56
2022-10-15T22:03:58.079Z,14.63
2022-10-15T22:06:27.269Z,14.62
2022-10-15T22:08:54.354Z,14.58
2022-10-15T22:11:29.833Z,14.60
2022-10-15T22:13:58.119Z,14.64
2022-10-15T22:16:25.715Z,14.70
2022-10-15T22:18:53.408Z,14.71
2022-10-15T22:21:22.491Z,14.78
2022-10-15T22:23:49.900Z,14.82
2022-10-15T22:26:17.899Z,14.89
2022-10-15T22:28:45.662Z,14.93
2022-10-15T22:31:14.888Z,15.02
2022-10-15T22:33:42.829Z,15.04
2022-10-15T22:36:13.360Z,15.06
2022-10-15T22:38:41.111Z,15.12
2022-10-15T22:41:09.701Z,15.20
2022-10-15T22:43:37.090Z,15.20
2022-10-15T22:46:04.568Z,15.20
2022-10-15T22:48:35.630Z,15.19
2022-10-15T22:51:03.967Z,15.19
2022-10-15T22:53:31.017Z,15.16
2022-10-15T22:55:59.678Z,15.15
2022-10-15T22:58:27.863Z,15.11
2022-10-15T23:00:55.055Z,15.08
2022-10-15T23:03:22.501Z,15.02
2022-10-15T23:05:53.519Z,15.08
2022-10-15T23:08:21.373Z,15.12
2022-10-15T23:10:48.848Z,15.11
2022-10-15T23:13:15.995Z,15.10
2022-10-15T23:15:43.026Z,15.01
2022-10-15T23:18:10.201Z,14.92
2022-10-15T23:20:40.120Z,14.81
2022-10-15T23:23:07.580Z,14.81
2022-10-15T23:25:39.060Z,14.78
2022-10-15T23:28:06.211Z,14.70
2022-10-15T23:30:33.385Z,14.64
2022-10-15T23:33:01.537Z,14.62
2022-10-15T23:35:28.634Z,14.58
2022-10-15T23:37:55.763Z,14.53
2022-10-15T23:40:22.793Z,14.44
2022-10-15T23:42:49.868Z,14.35
2022-10-15T23:45:17.066Z,14.32
2022-10-15T23:47:44.207Z,14.32
2022-10-15T23:50:11.197Z,14.24
2022-10-15T23:52:38.521Z,14.20
2022-10-15T23:55:05.781Z,14.16
2022-10-15T23:57:38.771Z,14.12
